Terminal Aerodrome Forecast
Issued by NWS

Home | Current Version | Previous Version | Text Only | Print | Product List | Glossary On
Versions: 1 2 3 4 5 6 7 8 9 10 11 12 13 14 15 16 17 18 19 20 21 22 23 24 25 26 27 28 29 30 31 32 33 34 35 36 37 38
000
FTUS41 KRNK 050825 AAA
TAFLWB
TAF AMD
KLWB 050825Z 0508/0606 VRB03KT 3SM -DZ BR SCT001 OVC006
      WS020/19035KT
      TEMPO 0508/0512 1SM BR BKN001
     FM051300 29006KT P6SM OVC020
     FM051700 30005KT P6SM SCT025 BKN250
     FM060100 00000KT P6SM BKN150 OVC250=

USA.gov is the U.S. government's official web portal to all federal, state and local government web resources and services.